createdAt,value
2019-03-21T00:01:17.290Z,8.80
2019-03-21T00:03:47.690Z,7.73
2019-03-21T00:06:17.026Z,7.83
2019-03-21T00:08:46.445Z,6.60
2019-03-21T00:11:51.636Z,7.73
2019-03-21T00:14:31.547Z,7.60
2019-03-21T00:17:01.202Z,7.40
2019-03-21T00:19:30.739Z,7.30
2019-03-21T00:22:00.473Z,7.50
2019-03-21T00:24:29.970Z,7.30
2019-03-21T00:26:59.695Z,7.43
2019-03-21T00:29:29.006Z,8.53
2019-03-21T00:31:58.582Z,8.17
2019-03-21T00:34:28.161Z,7.73
2019-03-21T00:36:57.813Z,7.90
2019-03-21T00:39:32.799Z,7.30
2019-03-21T00:41:58.775Z,7.70
2019-03-21T00:44:28.067Z,7.10
2019-03-21T00:46:58.054Z,8.03
2019-03-21T00:49:27.449Z,7.57
2019-03-21T00:51:56.847Z,8.43
2019-03-21T00:54:26.201Z,8.47
2019-03-21T00:56:55.585Z,8.63
2019-03-21T00:59:25.346Z,8.40
2019-03-21T01:01:54.687Z,7.80
2019-03-21T01:04:27.265Z,8.63
2019-03-21T01:06:57.028Z,8.73
2019-03-21T01:09:26.364Z,8.33
2019-03-21T01:11:55.763Z,8.50
2019-03-21T01:14:29.771Z,9.23
2019-03-21T01:16:56.527Z,9.03
2019-03-21T01:19:25.869Z,9.20
2019-03-21T01:21:55.522Z,8.60
2019-03-21T01:24:24.904Z,8.93
2019-03-21T01:26:54.214Z,8.90
2019-03-21T01:29:23.497Z,9.13
2019-03-21T01:31:54.561Z,9.67
2019-03-21T01:34:24.150Z,9.07
2019-03-21T01:36:53.471Z,10.43
2019-03-21T01:39:22.759Z,10.13
2019-03-21T01:41:55.007Z,10.43
2019-03-21T01:44:24.543Z,10.37
2019-03-21T01:46:53.884Z,10.23
2019-03-21T01:49:23.188Z,10.10
2019-03-21T01:51:52.530Z,9.87
2019-03-21T01:54:21.904Z,9.57
2019-03-21T01:56:51.541Z,10.13
2019-03-21T01:59:20.846Z,9.73
2019-03-21T02:01:50.168Z,10.43
2019-03-21T02:04:19.563Z,10.60
2019-03-21T02:06:48.985Z,10.63
2019-03-21T02:09:18.277Z,11.50
2019-03-21T02:11:47.847Z,10.87
2019-03-21T02:14:17.143Z,12.20
2019-03-21T02:16:46.755Z,11.60
2019-03-21T02:19:16.051Z,11.97
2019-03-21T02:21:45.665Z,11.70
2019-03-21T02:24:14.968Z,11.77
2019-03-21T02:26:44.268Z,12.23
2019-03-21T02:29:13.634Z,11.67
2019-03-21T02:31:42.956Z,12.70
2019-03-21T02:34:12.259Z,11.93
2019-03-21T02:36:41.726Z,12.57
2019-03-21T02:39:11.357Z,12.20
2019-03-21T02:41:40.651Z,12.23
2019-03-21T02:44:09.942Z,11.60
2019-03-21T02:46:39.254Z,11.87
2019-03-21T02:49:08.597Z,12.67
2019-03-21T02:51:38.383Z,12.47
2019-03-21T02:54:08.196Z,11.87
2019-03-21T02:56:37.764Z,11.87
2019-03-21T02:59:07.380Z,11.87
2019-03-21T03:01:36.689Z,12.33
2019-03-21T03:04:05.983Z,12.83
2019-03-21T03:06:35.291Z,11.60
2019-03-21T03:09:07.546Z,12.47
2019-03-21T03:11:36.865Z,11.93
2019-03-21T03:14:06.291Z,11.97
2019-03-21T03:16:35.609Z,12.77
2019-03-21T03:19:05.107Z,11.97
2019-03-21T03:21:34.423Z,11.57
2019-03-21T03:24:03.921Z,12.40
2019-03-21T03:26:33.242Z,11.50
2019-03-21T03:29:02.833Z,12.67
2019-03-21T03:31:32.207Z,12.77
2019-03-21T03:34:01.523Z,12.50
2019-03-21T03:36:30.857Z,13.53
2019-03-21T03:39:00.247Z,12.90
2019-03-21T03:41:29.613Z,12.80
2019-03-21T03:43:59.214Z,12.90
2019-03-21T03:46:28.515Z,12.30
2019-03-21T03:48:58.176Z,11.63
2019-03-21T03:51:27.489Z,12.53
2019-03-21T03:53:57.222Z,12.30
2019-03-21T03:56:26.530Z,11.83
2019-03-21T03:58:56.657Z,11.73
2019-03-21T04:01:26.198Z,10.80
2019-03-21T04:03:55.728Z,12.00
2019-03-21T04:06:25.372Z,12.17
2019-03-21T04:08:54.784Z,11.97
2019-03-21T04:11:24.610Z,11.60
2019-03-21T04:13:54.197Z,11.23
2019-03-21T04:16:23.503Z,11.63
2019-03-21T04:18:53.510Z,12.20
2019-03-21T04:21:22.834Z,10.63
2019-03-21T04:23:52.516Z,12.00
2019-03-21T04:26:25.746Z,12.03
2019-03-21T04:28:55.152Z,12.13
2019-03-21T04:31:24.767Z,12.27
2019-03-21T04:33:55.689Z,12.77
2019-03-21T04:36:24.982Z,12.67
2019-03-21T04:38:54.394Z,12.70
2019-03-21T04:41:23.705Z,11.20
2019-03-21T04:43:53.372Z,12.43
2019-03-21T04:46:23.287Z,12.33
2019-03-21T04:48:52.590Z,12.20
2019-03-21T04:51:23.642Z,11.70
2019-03-21T04:53:53.751Z,12.97
2019-03-21T04:56:23.173Z,12.60
2019-03-21T04:58:52.806Z,13.43
2019-03-21T05:01:22.175Z,13.27
2019-03-21T05:03:52.032Z,12.90
2019-03-21T05:06:21.327Z,13.33
2019-03-21T05:08:50.667Z,12.97
2019-03-21T05:11:20.394Z,12.67
2019-03-21T05:13:50.058Z,13.03
2019-03-21T05:16:19.366Z,12.47
2019-03-21T05:18:49.254Z,13.17
2019-03-21T05:21:18.916Z,13.33
2019-03-21T05:23:48.251Z,13.27
2019-03-21T05:26:17.919Z,12.90
2019-03-21T05:28:47.491Z,13.97
2019-03-21T05:31:23.191Z,13.43
2019-03-21T05:33:52.804Z,13.87
2019-03-21T05:36:22.165Z,13.03
2019-03-21T05:38:51.562Z,13.87
2019-03-21T05:41:21.294Z,13.13
2019-03-21T05:43:53.908Z,13.60
2019-03-21T05:46:26.848Z,13.90
2019-03-21T05:48:54.830Z,14.77
2019-03-21T05:51:24.219Z,15.20
2019-03-21T05:53:53.889Z,14.17
2019-03-21T05:56:23.231Z,13.60
2019-03-21T05:58:52.648Z,15.27
2019-03-21T06:01:22.039Z,14.73
2019-03-21T06:03:52.135Z,15.23
2019-03-21T06:06:37.345Z,14.97
2019-03-21T06:09:08.644Z,14.33
2019-03-21T06:11:39.652Z,14.80
2019-03-21T06:14:09.207Z,15.10
2019-03-21T06:16:38.504Z,14.63
2019-03-21T06:19:31.531Z,15.20
2019-03-21T06:22:32.751Z,15.10
2019-03-21T06:25:49.487Z,14.43
2019-03-21T06:28:18.876Z,15.27
2019-03-21T06:30:48.255Z,15.73
2019-03-21T06:33:17.641Z,14.87
2019-03-21T06:35:46.992Z,14.73
2019-03-21T06:38:16.368Z,15.03
2019-03-21T06:40:45.967Z,14.53
2019-03-21T06:43:15.583Z,15.60
2019-03-21T06:45:48.151Z,15.30
2019-03-21T06:48:16.428Z,15.33
2019-03-21T06:50:45.877Z,14.87
2019-03-21T06:53:15.563Z,15.83
2019-03-21T06:55:45.766Z,17.27
2019-03-21T06:58:15.138Z,16.30
2019-03-21T07:00:44.462Z,16.27
2019-03-21T07:03:16.322Z,15.07
2019-03-21T07:05:45.167Z,15.93
2019-03-21T07:08:14.494Z,17.27
2019-03-21T07:10:43.959Z,17.60
2019-03-21T07:13:15.031Z,17.03
2019-03-21T07:15:44.363Z,17.73
2019-03-21T07:18:13.863Z,17.43
2019-03-21T07:20:43.563Z,18.03
2019-03-21T07:23:13.126Z,16.33
2019-03-21T07:25:42.468Z,17.80
2019-03-21T07:28:11.854Z,17.43
2019-03-21T07:30:41.187Z,19.57
2019-03-21T07:33:10.504Z,18.00
2019-03-21T07:35:40.193Z,18.37
2019-03-21T07:38:09.725Z,17.77
2019-03-21T07:40:39.132Z,18.80
2019-03-21T07:43:08.452Z,19.07
2019-03-21T07:45:37.772Z,18.40
2019-03-21T07:48:07.454Z,17.90
2019-03-21T07:50:37.092Z,18.83
2019-03-21T07:53:06.398Z,18.17
2019-03-21T07:55:35.711Z,18.10
2019-03-21T07:58:05.340Z,18.63
2019-03-21T08:00:35.133Z,19.73
2019-03-21T08:03:04.517Z,19.03
2019-03-21T08:05:40.394Z,19.93
2019-03-21T08:08:05.314Z,19.77
2019-03-21T08:10:35.096Z,20.27
2019-03-21T08:13:04.492Z,20.53
2019-03-21T08:15:34.209Z,20.40
2019-03-21T08:18:03.705Z,21.43
2019-03-21T08:20:33.119Z,19.73
2019-03-21T08:23:03.136Z,20.17
2019-03-21T08:25:32.466Z,19.33
2019-03-21T08:28:01.998Z,21.17
2019-03-21T08:30:39.459Z,20.70
2019-03-21T08:33:09.192Z,20.50
2019-03-21T08:35:38.831Z,20.20
2019-03-21T08:38:08.973Z,19.27
2019-03-21T08:40:38.301Z,19.30
2019-03-21T08:43:08.199Z,20.30
2019-03-21T08:45:37.596Z,19.93
2019-03-21T08:48:06.939Z,18.73
2019-03-21T08:50:36.268Z,19.57
2019-03-21T08:53:05.734Z,18.50
2019-03-21T08:55:35.110Z,19.13
2019-03-21T08:58:04.804Z,18.73
2019-03-21T09:00:34.677Z,19.40
2019-03-21T09:03:04.725Z,19.37
2019-03-21T09:05:34.395Z,19.83
2019-03-21T09:08:04.460Z,19.00
2019-03-21T09:10:34.449Z,20.23
2019-03-21T09:13:04.199Z,20.37
2019-03-21T09:15:33.813Z,19.70
2019-03-21T09:18:03.443Z,19.83
2019-03-21T09:20:33.099Z,20.33
2019-03-21T09:23:09.775Z,19.73
2019-03-21T09:25:39.098Z,20.77
2019-03-21T09:28:08.618Z,19.27
2019-03-21T09:30:38.014Z,18.87
2019-03-21T09:33:07.698Z,20.73
2019-03-21T09:35:37.316Z,19.83
2019-03-21T09:38:06.624Z,21.10
2019-03-21T09:40:35.945Z,18.87
2019-03-21T09:43:05.318Z,18.60
2019-03-21T09:45:34.907Z,18.67
2019-03-21T09:48:04.208Z,19.77
2019-03-21T09:50:33.522Z,18.33
2019-03-21T09:53:02.866Z,17.87
2019-03-21T09:55:32.248Z,17.50
2019-03-21T09:58:02.426Z,18.03
2019-03-21T10:00:33.979Z,19.90
2019-03-21T10:03:04.471Z,18.83
2019-03-21T10:05:34.035Z,19.87
2019-03-21T10:08:03.680Z,19.40
2019-03-21T10:10:33.457Z,21.00
2019-03-21T10:13:03.331Z,20.10
2019-03-21T10:15:33.518Z,20.23
2019-03-21T10:18:03.283Z,20.80
2019-03-21T10:20:33.613Z,20.70
2019-03-21T10:23:03.542Z,19.83
2019-03-21T10:25:32.963Z,21.90
2019-03-21T10:28:02.504Z,19.17
2019-03-21T10:30:36.971Z,20.77
2019-03-21T10:33:07.747Z,22.20
2019-03-21T10:35:37.543Z,21.53
2019-03-21T10:38:07.446Z,20.90
2019-03-21T10:40:37.034Z,21.27
2019-03-21T10:43:07.161Z,20.33
2019-03-21T10:45:37.176Z,21.00
2019-03-21T10:48:07.171Z,20.80
2019-03-21T10:50:38.200Z,19.97
2019-03-21T10:53:08.628Z,18.53
2019-03-21T10:55:38.521Z,18.70
2019-03-21T10:58:08.995Z,18.30
2019-03-21T11:00:39.284Z,18.77
2019-03-21T11:03:09.114Z,16.83
2019-03-21T11:05:38.532Z,17.77
2019-03-21T11:08:08.536Z,18.73
2019-03-21T11:10:37.869Z,16.30
2019-03-21T11:13:07.260Z,17.03
2019-03-21T11:15:36.732Z,18.07
2019-03-21T11:18:06.718Z,17.47
2019-03-21T11:20:37.693Z,16.90
2019-03-21T11:23:07.942Z,18.03
2019-03-21T11:25:37.503Z,17.20
2019-03-21T11:28:07.127Z,16.63
2019-03-21T11:30:38.459Z,18.17
2019-03-21T11:33:08.242Z,15.97
2019-03-21T11:35:37.626Z,16.27
2019-03-21T11:38:07.295Z,16.30
2019-03-21T11:40:37.109Z,17.87
2019-03-21T11:43:08.366Z,17.07
2019-03-21T11:45:38.210Z,16.63
2019-03-21T11:48:07.868Z,17.47
2019-03-21T11:50:37.563Z,17.67
2019-03-21T11:53:07.406Z,16.47
2019-03-21T11:55:37.320Z,15.73
2019-03-21T11:58:06.757Z,16.67
2019-03-21T12:00:43.995Z,18.47
2019-03-21T12:03:07.458Z,18.33
2019-03-21T12:05:37.124Z,18.13
2019-03-21T12:08:06.627Z,16.53
2019-03-21T12:10:35.944Z,16.30
2019-03-21T12:13:05.658Z,16.40
2019-03-21T12:15:35.408Z,16.80
2019-03-21T12:18:04.768Z,16.60
2019-03-21T12:20:35.111Z,16.37
2019-03-21T12:23:05.439Z,17.50
2019-03-21T12:25:34.760Z,17.40
2019-03-21T12:28:04.333Z,16.70
2019-03-21T12:30:43.273Z,18.00
2019-03-21T12:33:12.895Z,16.93
2019-03-21T12:35:42.289Z,17.03
2019-03-21T12:38:12.153Z,15.83
2019-03-21T12:40:41.489Z,15.57
2019-03-21T12:43:10.790Z,16.20
2019-03-21T12:45:40.126Z,15.27
2019-03-21T12:48:09.508Z,14.67
2019-03-21T12:50:38.986Z,14.93
2019-03-21T12:53:08.444Z,14.20
2019-03-21T12:55:38.087Z,13.93
2019-03-21T12:58:07.493Z,16.80
2019-03-21T13:00:43.963Z,16.63
2019-03-21T13:03:13.448Z,16.97
2019-03-21T13:05:42.928Z,20.17
2019-03-21T13:08:12.399Z,21.23
2019-03-21T13:10:41.781Z,23.23
2019-03-21T13:13:11.244Z,22.33
2019-03-21T13:15:40.619Z,22.07
2019-03-21T13:18:10.110Z,21.87
2019-03-21T13:20:39.639Z,22.07
2019-03-21T13:23:09.451Z,22.87
2019-03-21T13:25:38.895Z,21.33
2019-03-21T13:28:08.990Z,23.77
2019-03-21T13:30:38.422Z,24.10
2019-03-21T13:33:07.902Z,22.43
2019-03-21T13:35:37.634Z,23.00
2019-03-21T13:38:07.031Z,22.33
2019-03-21T13:40:37.133Z,23.20
2019-03-21T13:43:06.817Z,23.60
2019-03-21T13:45:36.557Z,23.53
2019-03-21T13:48:06.746Z,23.17
2019-03-21T13:50:36.679Z,23.60
2019-03-21T13:53:18.261Z,23.33
2019-03-21T13:55:38.149Z,22.30
2019-03-21T13:58:07.470Z,21.40
2019-03-21T14:00:37.770Z,23.10
2019-03-21T14:03:08.272Z,24.07
2019-03-21T14:05:37.689Z,23.83
2019-03-21T14:08:07.560Z,23.43
2019-03-21T14:10:37.038Z,22.73
2019-03-21T14:13:06.337Z,24.20
2019-03-21T14:15:35.655Z,23.17
2019-03-21T14:18:05.279Z,22.93
2019-03-21T14:20:35.006Z,22.70
2019-03-21T14:23:16.036Z,23.30
2019-03-21T14:25:36.105Z,23.57
2019-03-21T14:28:05.612Z,22.90
2019-03-21T14:30:35.288Z,23.83
2019-03-21T14:33:04.751Z,24.17
2019-03-21T14:35:34.403Z,23.17
2019-03-21T14:38:03.788Z,22.47
2019-03-21T14:40:33.152Z,24.30
2019-03-21T14:43:02.778Z,25.30
2019-03-21T14:45:32.096Z,24.03
2019-03-21T14:48:01.975Z,23.00
2019-03-21T14:50:31.956Z,24.47
2019-03-21T14:53:01.564Z,24.43
2019-03-21T14:55:31.214Z,26.63
2019-03-21T14:58:00.875Z,23.23
2019-03-21T15:00:30.288Z,23.80
2019-03-21T15:03:00.257Z,23.27
2019-03-21T15:05:29.887Z,24.47
2019-03-21T15:07:59.723Z,24.33
2019-03-21T15:10:29.151Z,23.37
2019-03-21T15:12:58.462Z,25.93
2019-03-21T15:15:27.807Z,27.20
2019-03-21T15:17:58.802Z,24.77
2019-03-21T15:20:28.627Z,23.60
2019-03-21T15:22:58.515Z,23.53
2019-03-21T15:25:27.960Z,24.50
2019-03-21T15:27:57.311Z,24.13
2019-03-21T15:30:26.631Z,23.97
2019-03-21T15:32:55.991Z,24.73
2019-03-21T15:35:25.721Z,28.03
2019-03-21T15:37:55.805Z,26.17
2019-03-21T15:40:25.285Z,25.27
2019-03-21T15:42:57.024Z,25.43
2019-03-21T15:45:26.931Z,26.03
2019-03-21T15:47:56.236Z,25.17
2019-03-21T15:50:33.797Z,25.97
2019-03-21T15:53:03.712Z,26.03
2019-03-21T15:55:33.305Z,24.87
2019-03-21T15:58:03.149Z,23.80
2019-03-21T16:00:35.023Z,24.57
2019-03-21T16:03:05.770Z,25.07
2019-03-21T16:05:35.787Z,24.23
2019-03-21T16:08:08.865Z,23.93
2019-03-21T16:10:38.641Z,22.50
2019-03-21T16:13:08.213Z,23.57
2019-03-21T16:15:37.928Z,25.00
2019-03-21T16:18:07.895Z,23.30
2019-03-21T16:20:37.263Z,24.33
2019-03-21T16:23:07.081Z,25.17
2019-03-21T16:25:36.407Z,25.50
2019-03-21T16:28:05.783Z,24.93
2019-03-21T16:30:35.722Z,24.57
2019-03-21T16:33:05.435Z,24.97
2019-03-21T16:35:35.153Z,26.70
2019-03-21T16:38:04.538Z,25.27
2019-03-21T16:40:33.954Z,25.63
2019-03-21T16:43:05.420Z,26.53
2019-03-21T16:45:34.686Z,25.53
2019-03-21T16:48:04.547Z,26.57
2019-03-21T16:50:34.227Z,25.87
2019-03-21T16:53:04.272Z,25.73
2019-03-21T16:55:35.020Z,25.90
2019-03-21T16:58:04.350Z,27.40
2019-03-21T17:00:33.758Z,25.20
2019-03-21T17:03:04.320Z,24.77
2019-03-21T17:05:33.640Z,26.67
2019-03-21T17:08:11.030Z,25.00
2019-03-21T17:10:35.003Z,26.53
2019-03-21T17:13:05.048Z,25.40
2019-03-21T17:15:35.668Z,24.33
2019-03-21T17:18:05.551Z,25.17
2019-03-21T17:20:35.528Z,25.33
2019-03-21T17:23:04.973Z,23.90
2019-03-21T17:25:34.718Z,25.97
2019-03-21T17:28:04.211Z,24.33
2019-03-21T17:30:33.878Z,26.77
2019-03-21T17:33:03.925Z,25.17
2019-03-21T17:35:33.581Z,26.60
2019-03-21T17:38:03.417Z,31.87
2019-03-21T17:40:32.905Z,27.07
2019-03-21T17:43:02.876Z,30.60
2019-03-21T17:45:32.181Z,27.30
2019-03-21T17:48:01.830Z,25.17
2019-03-21T17:50:31.190Z,25.57
2019-03-21T17:53:00.831Z,22.63
2019-03-21T17:55:30.854Z,26.33
2019-03-21T17:58:00.246Z,25.00
2019-03-21T18:00:30.659Z,21.73
2019-03-21T18:03:00.039Z,30.23
2019-03-21T18:05:29.435Z,32.03
2019-03-21T18:07:59.136Z,27.70
2019-03-21T18:10:32.424Z,26.17
2019-03-21T18:13:02.215Z,24.97
2019-03-21T18:15:32.223Z,25.83
2019-03-21T18:18:01.645Z,26.90
2019-03-21T18:20:31.014Z,26.13
2019-03-21T18:23:00.661Z,29.57
2019-03-21T18:25:29.982Z,27.40
2019-03-21T18:27:59.366Z,27.67
2019-03-21T18:30:28.743Z,27.83
2019-03-21T18:32:58.091Z,28.23
2019-03-21T18:35:27.668Z,29.53
2019-03-21T18:37:57.058Z,28.87
2019-03-21T18:40:27.000Z,34.47
2019-03-21T18:42:56.828Z,30.37
2019-03-21T18:45:26.207Z,32.47
2019-03-21T18:47:55.658Z,34.33
2019-03-21T18:50:24.983Z,36.97
2019-03-21T18:52:54.683Z,33.90
2019-03-21T18:55:24.235Z,31.60
2019-03-21T18:57:54.248Z,30.93
2019-03-21T19:00:24.549Z,30.07
2019-03-21T19:02:53.871Z,30.20
2019-03-21T19:05:23.248Z,31.33
2019-03-21T19:07:53.145Z,33.73
2019-03-21T19:10:22.775Z,32.00
2019-03-21T19:12:52.157Z,31.87
2019-03-21T19:15:21.465Z,31.97
2019-03-21T19:17:50.786Z,31.70
2019-03-21T19:20:20.250Z,33.13
2019-03-21T19:22:49.567Z,32.73
2019-03-21T19:25:19.842Z,32.83
2019-03-21T19:27:49.618Z,31.57
2019-03-21T19:30:19.122Z,32.37
2019-03-21T19:32:48.738Z,33.20
2019-03-21T19:35:18.589Z,33.30
2019-03-21T19:37:48.017Z,32.23
2019-03-21T19:40:17.740Z,32.70
2019-03-21T19:42:47.071Z,31.83
2019-03-21T19:45:17.131Z,34.43
2019-03-21T19:47:46.964Z,33.23
2019-03-21T19:50:16.897Z,31.17
2019-03-21T19:52:46.325Z,32.67
2019-03-21T19:55:15.962Z,34.07
2019-03-21T19:57:45.610Z,33.20
2019-03-21T20:00:17.223Z,34.23
2019-03-21T20:02:46.618Z,33.87
2019-03-21T20:05:16.072Z,34.53
2019-03-21T20:07:45.758Z,36.20
2019-03-21T20:10:15.816Z,44.33
2019-03-21T20:12:45.809Z,40.97
2019-03-21T20:15:15.924Z,41.23
2019-03-21T20:17:46.178Z,34.03
2019-03-21T20:20:16.201Z,34.53
2019-03-21T20:22:45.917Z,33.03
2019-03-21T20:25:16.617Z,34.70
2019-03-21T20:27:46.058Z,34.53
2019-03-21T20:30:17.076Z,34.17
2019-03-21T20:32:46.574Z,34.90
2019-03-21T20:35:16.384Z,35.63
2019-03-21T20:37:46.638Z,34.73
2019-03-21T20:40:16.708Z,34.97
2019-03-21T20:42:46.432Z,37.07
2019-03-21T20:45:16.268Z,38.50
2019-03-21T20:47:45.964Z,37.00
2019-03-21T20:50:17.278Z,36.63
2019-03-21T20:52:46.871Z,34.50
2019-03-21T20:55:16.770Z,36.13
2019-03-21T20:57:46.396Z,37.80
2019-03-21T21:00:17.870Z,36.03
2019-03-21T21:02:47.788Z,36.23
2019-03-21T21:05:17.315Z,36.57
2019-03-21T21:07:46.695Z,37.00
2019-03-21T21:10:16.296Z,37.57
2019-03-21T21:12:45.705Z,36.43
2019-03-21T21:15:15.997Z,37.50
2019-03-21T21:17:45.330Z,36.93
2019-03-21T21:20:15.544Z,36.03
2019-03-21T21:22:44.887Z,38.40
2019-03-21T21:25:15.422Z,37.73
2019-03-21T21:27:49.754Z,37.73
2019-03-21T21:30:17.118Z,37.47
2019-03-21T21:32:47.285Z,37.60
2019-03-21T21:35:17.081Z,37.60
2019-03-21T21:37:46.794Z,39.23
2019-03-21T21:40:16.827Z,38.90
2019-03-21T21:42:46.490Z,38.43
2019-03-21T21:45:16.471Z,37.17
2019-03-21T21:47:46.090Z,37.80
2019-03-21T21:50:15.635Z,38.27
2019-03-21T21:52:45.113Z,40.93
2019-03-21T21:55:14.793Z,38.23
2019-03-21T21:57:44.212Z,37.13
2019-03-21T22:00:15.497Z,35.97
2019-03-21T22:02:44.927Z,36.17
2019-03-21T22:05:14.627Z,39.80
2019-03-21T22:07:44.319Z,36.90
2019-03-21T22:10:14.406Z,35.93
2019-03-21T22:12:43.699Z,36.40
2019-03-21T22:15:13.309Z,37.33
2019-03-21T22:17:42.781Z,37.87
2019-03-21T22:20:12.774Z,37.63
2019-03-21T22:22:42.218Z,38.70
2019-03-21T22:25:12.833Z,38.50
2019-03-21T22:27:42.544Z,39.53
2019-03-21T22:30:13.555Z,38.67
2019-03-21T22:32:42.970Z,39.93
2019-03-21T22:35:12.627Z,38.20
2019-03-21T22:37:42.299Z,38.83
2019-03-21T22:40:11.922Z,36.70
2019-03-21T22:42:41.568Z,36.30
2019-03-21T22:45:11.532Z,37.37
2019-03-21T22:47:41.727Z,37.57
2019-03-21T22:50:14.744Z,37.97
2019-03-21T22:52:43.985Z,36.67
2019-03-21T22:55:13.906Z,37.43
2019-03-21T22:57:43.789Z,40.20
2019-03-21T23:00:15.985Z,42.60
2019-03-21T23:02:45.913Z,40.67
2019-03-21T23:05:16.235Z,40.90
2019-03-21T23:07:45.901Z,40.23
2019-03-21T23:10:15.867Z,40.90
2019-03-21T23:12:45.502Z,41.10
2019-03-21T23:15:15.154Z,41.97
2019-03-21T23:17:44.572Z,42.37
2019-03-21T23:20:14.536Z,44.97
2019-03-21T23:22:44.196Z,45.80
2019-03-21T23:25:16.625Z,43.30
2019-03-21T23:27:45.669Z,44.83
2019-03-21T23:30:16.205Z,42.50
2019-03-21T23:32:45.782Z,43.90
2019-03-21T23:35:15.984Z,44.23
2019-03-21T23:37:45.658Z,43.53
2019-03-21T23:40:15.874Z,43.33
2019-03-21T23:42:45.345Z,43.80
2019-03-21T23:45:15.212Z,45.33
2019-03-21T23:47:44.995Z,43.77
2019-03-21T23:50:14.907Z,43.00
2019-03-21T23:52:44.339Z,44.90
2019-03-21T23:55:15.324Z,45.97
2019-03-21T23:57:44.785Z,43.87
